Time;durP1;ratioP1;P1;durP2;ratioP2;P2;SDS_P1;SDS_P2;PMS_P1;PMS_P2;Temp;Humidity;BMP_temperature;BMP_pressure;BME280_temperature;BME280_humidity;BME280_pressure;Samples;Min_cycle;Max_cycle;Signal;HPM_P1;HPM_P2
2022/03/03 00:01:25;;;;;;;1.25;0.63;;;;;;;13.00;100.00;101206.63;5030496;28;20049;-72
2022/03/03 00:03:53;;;;;;;1.48;0.73;;;;;;;12.97;100.00;101212.63;5029930;28;20056;-72
2022/03/03 00:06:22;;;;;;;1.05;0.63;;;;;;;12.94;100.00;101207.34;5029878;28;20099;-73
2022/03/03 00:08:52;;;;;;;1.02;0.70;;;;;;;12.90;100.00;101200.31;5030362;28;20053;-73
2022/03/03 00:11:20;;;;;;;0.75;0.63;;;;;;;12.87;100.00;101194.13;5031995;28;20565;-74
2022/03/03 00:13:49;;;;;;;2.33;0.60;;;;;;;12.89;100.00;101208.06;5044614;28;20088;-73
2022/03/03 00:16:17;;;;;;;0.95;0.70;;;;;;;12.90;100.00;101200.31;5030701;28;20045;-74
2022/03/03 00:18:46;;;;;;;1.85;0.60;;;;;;;12.88;100.00;101195.91;5029963;28;20055;-73
2022/03/03 00:21:14;;;;;;;1.42;0.80;;;;;;;12.85;100.00;101196.72;5030281;28;20049;-72
2022/03/03 00:23:43;;;;;;;2.38;1.10;;;;;;;12.85;100.00;101201.91;5029452;28;20049;-72
2022/03/03 00:26:13;;;;;;;1.42;0.93;;;;;;;12.80;100.00;101208.66;5046397;28;20099;-71
2022/03/03 00:28:42;;;;;;;1.40;0.80;;;;;;;12.77;100.00;101201.69;5050007;28;20424;-72
2022/03/03 00:31:10;;;;;;;1.98;0.90;;;;;;;12.67;100.00;101178.91;5034768;28;20260;-72
2022/03/03 00:33:39;;;;;;;1.65;0.60;;;;;;;12.71;100.00;101198.94;5029827;28;20107;-72
2022/03/03 00:36:07;;;;;;;3.05;1.25;;;;;;;12.68;100.00;101198.84;5030329;28;20108;-72
2022/03/03 00:38:36;;;;;;;1.50;0.60;;;;;;;12.68;100.00;101195.38;5029915;28;20061;-73
2022/03/03 00:41:05;;;;;;;1.35;0.93;;;;;;;12.66;100.00;101190.13;5029680;28;20033;-73
2022/03/03 00:43:35;;;;;;;2.50;0.80;;;;;;;12.66;100.00;101194.44;5029562;28;20092;-73
2022/03/03 00:46:03;;;;;;;1.20;0.70;;;;;;;12.64;100.00;101191.78;5029426;28;20080;-73
2022/03/03 00:48:32;;;;;;;1.30;0.70;;;;;;;12.61;100.00;101194.31;5029891;28;20415;-73
2022/03/03 00:51:04;;;;;;;0.90;0.77;;;;;;;12.61;100.00;101193.44;5029714;28;20108;-74
2022/03/03 00:53:32;;;;;;;1.08;0.65;;;;;;;12.58;100.00;101197.69;5030366;28;20056;-73
2022/03/03 00:56:01;;;;;;;1.27;0.75;;;;;;;12.56;100.00;101198.50;5041390;28;20103;-75
2022/03/03 00:58:29;;;;;;;1.27;0.70;;;;;;;12.52;100.00;101202.72;5029244;28;20045;-74
2022/03/03 01:01:01;;;;;;;1.02;0.88;;;;;;;12.52;100.00;101202.72;5035692;28;20049;-74
2022/03/03 01:03:29;;;;;;;2.28;0.82;;;;;;;12.48;100.00;101193.06;5035666;28;20052;-74
2022/03/03 01:05:58;;;;;;;0.70;0.60;;;;;;;12.47;100.00;101193.03;5029658;28;20484;-74
2022/03/03 01:08:26;;;;;;;0.85;0.65;;;;;;;12.48;100.00;101199.97;5042276;28;20111;-75
2022/03/03 01:10:55;;;;;;;2.38;0.70;;;;;;;12.49;100.00;101193.97;5047242;28;20045;-75
2022/03/03 01:13:23;;;;;;;2.35;0.70;;;;;;;12.50;100.00;101193.13;5046083;28;20137;-72
2022/03/03 01:15:53;;;;;;;1.17;0.70;;;;;;;12.49;100.00;101197.44;5047950;28;20055;-72
2022/03/03 01:18:23;;;;;;;2.28;0.40;;;;;;;12.45;100.00;101192.13;5053584;28;20053;-74
2022/03/03 01:20:54;;;;;;;1.30;0.75;;;;;;;12.39;100.00;101181.56;5053446;28;20138;-72
2022/03/03 01:23:23;;;;;;;1.77;0.63;;;;;;;12.38;100.00;101182.41;5052769;28;20128;-75
2022/03/03 01:25:51;;;;;;;0.52;0.50;;;;;;;12.33;100.00;101180.53;5052982;28;20182;-75
2022/03/03 01:28:20;;;;;;;0.73;0.32;;;;;;;12.34;100.00;101184.00;5053038;28;20053;-73
2022/03/03 01:30:48;;;;;;;0.98;0.60;;;;;;;12.31;100.00;101183.94;5052846;28;20060;-75
2022/03/03 01:33:17;;;;;;;0.68;0.40;;;;;;;12.24;100.00;101174.22;5053103;28;20103;-74
2022/03/03 01:35:47;;;;;;;2.78;0.63;;;;;;;12.20;100.00;101187.91;5052775;28;20048;-75
2022/03/03 01:38:16;;;;;;;0.47;0.30;;;;;;;12.18;100.00;101187.88;5053407;28;20052;-76
2022/03/03 01:40:44;;;;;;;1.13;0.60;;;;;;;12.17;100.00;101185.25;5048111;28;20083;-75
2022/03/03 01:43:13;;;;;;;0.20;0.20;;;;;;;12.15;100.00;101195.56;5033922;28;20052;-75
2022/03/03 01:45:41;;;;;;;0.68;0.35;;;;;;;12.10;100.00;101202.34;5052317;28;20095;-76
2022/03/03 01:48:10;;;;;;;4.57;0.50;;;;;;;12.08;100.00;101206.59;5052817;28;20053;-76
2022/03/03 01:50:39;;;;;;;0.68;0.35;;;;;;;12.06;100.00;101200.47;5052495;28;20056;-76
2022/03/03 01:53:09;;;;;;;0.45;0.40;;;;;;;12.05;100.00;101191.81;5052294;28;20045;-75
2022/03/03 01:55:37;;;;;;;0.55;0.40;;;;;;;12.05;100.00;101190.91;5052478;28;20495;-77
2022/03/03 01:58:06;;;;;;;1.27;0.40;;;;;;;12.08;100.00;101199.69;5052426;28;20080;-75
2022/03/03 02:00:35;;;;;;;0.40;0.20;;;;;;;12.06;100.00;101196.16;5051668;28;20045;-78
2022/03/03 02:03:03;;;;;;;2.03;0.40;;;;;;;12.03;100.00;101200.41;5052421;28;20095;-80
2022/03/03 02:05:32;;;;;;;0.68;0.45;;;;;;;11.99;100.00;101198.53;5054902;28;20074;-79
2022/03/03 02:08:01;;;;;;;4.18;0.55;;;;;;;11.97;100.00;101197.59;5051315;28;20053;-78
2022/03/03 02:10:32;;;;;;;1.60;0.47;;;;;;;11.96;100.00;101199.31;5051868;28;20045;-80
2022/03/03 02:13:01;;;;;;;0.32;0.30;;;;;;;11.93;100.00;101200.13;5038867;28;20056;-80
2022/03/03 02:15:29;;;;;;;1.30;0.40;;;;;;;11.90;100.00;101186.16;5052439;28;20053;-77
2022/03/03 02:17:58;;;;;;;1.48;0.40;;;;;;;11.82;100.00;101185.91;5052617;28;20057;-76
2022/03/03 02:20:29;;;;;;;1.60;0.40;;;;;;;11.78;100.00;101173.66;5050754;28;20734;-78
2022/03/03 02:22:59;;;;;;;1.40;0.30;;;;;;;11.78;100.00;101178.84;5052004;28;20103;-79
2022/03/03 02:25:27;;;;;;;0.35;0.32;;;;;;;11.76;100.00;101185.69;5051882;28;20044;-74
2022/03/03 02:27:57;;;;;;;0.73;0.38;;;;;;;11.76;100.00;101195.19;5052483;28;20103;-73
2022/03/03 02:30:26;;;;;;;0.40;0.20;;;;;;;11.74;100.00;101198.59;5038644;28;20487;-73
2022/03/03 02:32:54;;;;;;;1.05;0.30;;;;;;;11.70;100.00;101201.94;5052181;28;20124;-73
2022/03/03 02:35:24;;;;;;;0.70;0.30;;;;;;;11.66;100.00;101204.38;5052211;28;20077;-73
2022/03/03 02:37:54;;;;;;;0.70;0.40;;;;;;;11.62;100.00;101207.72;5052021;28;20586;-73
2022/03/03 02:40:22;;;;;;;0.30;0.20;;;;;;;11.61;100.00;101211.13;5050352;28;20049;-73
2022/03/03 02:42:52;;;;;;;1.55;0.50;;;;;;;11.59;100.00;101212.78;5031786;28;20048;-73
2022/03/03 02:45:22;;;;;;;0.75;0.28;;;;;;;11.60;100.00;101214.56;5050674;28;20045;-73
2022/03/03 02:47:51;;;;;;;2.00;0.35;;;;;;;11.60;100.00;101219.75;5051383;28;20128;-74
2022/03/03 02:50:21;;;;;;;1.85;0.20;;;;;;;11.60;100.00;101224.94;5051586;28;20053;-74
2022/03/03 02:52:50;;;;;;;0.85;0.30;;;;;;;11.59;100.00;101234.41;5051061;28;20114;-74
2022/03/03 02:55:22;;;;;;;0.82;0.43;;;;;;;11.59;100.00;101234.41;5051328;28;20049;-74
2022/03/03 02:57:56;;;;;;;1.90;0.43;;;;;;;11.60;100.00;101243.06;5051943;28;20049;-73
2022/03/03 03:00:26;;;;;;;1.35;0.35;;;;;;;11.59;100.00;101243.88;5051218;28;20052;-73
2022/03/03 03:02:55;;;;;;;2.53;0.60;;;;;;;11.59;100.00;101225.72;5054330;28;20107;-74
2022/03/03 03:05:24;;;;;;;1.05;0.45;;;;;;;11.60;100.00;101205.06;5051589;28;20049;-73
2022/03/03 03:07:53;;;;;;;1.70;0.50;;;;;;;11.61;100.00;101221.47;5051595;28;20048;-73
2022/03/03 03:10:23;;;;;;;5.80;0.75;;;;;;;11.56;100.00;101223.94;5050605;28;20052;-75
2022/03/03 03:12:51;;;;;;;1.27;0.60;;;;;;;11.50;100.00;101226.34;5050935;28;20459;-75
2022/03/03 03:15:20;;;;;;;2.92;0.60;;;;;;;11.47;100.00;101227.09;5051117;28;20289;-74
2022/03/03 03:17:49;;;;;;;2.40;0.60;;;;;;;11.46;100.00;101227.06;5051049;28;20153;-75
2022/03/03 03:20:17;;;;;;;0.60;0.43;;;;;;;11.44;100.00;101231.31;5051377;28;20558;-73
2022/03/03 03:22:46;;;;;;;1.30;0.63;;;;;;;11.40;100.00;101232.91;5050954;28;20049;-73
2022/03/03 03:25:15;;;;;;;0.70;0.50;;;;;;;11.37;100.00;101230.22;5051222;28;20080;-74
2022/03/03 03:27:46;;;;;;;1.90;0.60;;;;;;;11.34;100.00;101227.53;5050301;28;20061;-73
2022/03/03 03:30:14;;;;;;;7.55;1.17;;;;;;;11.38;100.00;101228.50;5050912;28;20140;-74
2022/03/03 03:32:43;;;;;;;2.15;0.63;;;;;;;11.42;100.00;101238.16;5050171;28;20095;-74
2022/03/03 03:35:12;;;;;;;2.13;0.85;;;;;;;11.44;100.00;101234.78;5051348;28;20510;-77
2022/03/03 03:37:40;;;;;;;0.60;0.50;;;;;;;11.43;100.00;101234.72;5050888;28;20102;-75
2022/03/03 03:40:10;;;;;;;1.10;0.57;;;;;;;11.40;100.00;101222.53;5050672;28;20045;-75
2022/03/03 03:42:39;;;;;;;1.90;0.60;;;;;;;11.38;100.00;101228.50;5030016;28;20053;-76
2022/03/03 03:45:10;;;;;;;0.60;0.47;;;;;;;11.36;100.00;101236.25;5047568;28;20092;-76
2022/03/03 03:47:39;;;;;;;0.93;0.60;;;;;;;11.33;100.00;101230.94;5050840;28;20045;-76
2022/03/03 03:50:09;;;;;;;2.15;0.68;;;;;;;11.32;100.00;101224.88;5050057;28;20045;-76
2022/03/03 03:52:39;;;;;;;2.80;0.60;;;;;;;11.28;100.00;101222.13;5050249;28;20048;-77
2022/03/03 03:55:09;;;;;;;2.03;0.80;;;;;;;11.25;100.00;101220.31;5050390;28;20115;-76
2022/03/03 03:57:38;;;;;;;2.20;0.82;;;;;;;11.18;100.00;101209.69;5051211;28;20110;-77
2022/03/03 04:00:12;;;;;;;1.33;0.70;;;;;;;11.16;100.00;101221.72;5051340;28;20106;-75
2022/03/03 04:02:41;;;;;;;1.30;0.80;;;;;;;11.11;100.00;101230.22;5049799;28;20055;-77
2022/03/03 04:05:10;;;;;;;6.35;0.85;;;;;;;11.06;100.00;101242.13;5050498;28;20049;-79
2022/03/03 04:07:39;;;;;;;0.85;0.45;;;;;;;11.03;100.00;101231.63;5050165;28;20102;-77
2022/03/03 04:10:09;;;;;;;1.33;0.63;;;;;;;11.04;100.00;101240.28;5049707;28;20512;-76
2022/03/03 04:12:37;;;;;;;1.42;0.88;;;;;;;11.06;100.00;101233.44;5048642;28;20053;-77
2022/03/03 04:15:09;;;;;;;1.13;0.60;;;;;;;11.10;100.00;101236.19;5050789;28;20045;-76
2022/03/03 04:17:38;;;;;;;3.70;0.93;;;;;;;11.13;100.00;101237.13;5050017;28;20124;-78
2022/03/03 04:20:08;;;;;;;1.55;0.70;;;;;;;11.15;100.00;101230.31;5050330;28;20090;-78
2022/03/03 04:22:37;;;;;;;1.27;0.90;;;;;;;11.15;100.00;101240.66;5050169;28;20058;-77
2022/03/03 04:25:06;;;;;;;2.10;1.00;;;;;;;11.14;100.00;101241.50;5049950;28;20706;-76
2022/03/03 04:27:35;;;;;;;2.88;1.17;;;;;;;11.14;100.00;101225.97;5050286;28;20128;-78
2022/03/03 04:30:04;;;;;;;1.33;0.90;;;;;;;11.15;100.00;101238.06;5049984;28;20099;-77
2022/03/03 04:32:35;;;;;;;0.85;0.63;;;;;;;11.16;100.00;101242.44;5049841;28;20080;-77
2022/03/03 04:35:04;;;;;;;1.23;0.77;;;;;;;11.14;100.00;101249.28;5050212;28;20084;-76
2022/03/03 04:37:32;;;;;;;1.88;0.82;;;;;;;11.15;100.00;101245.84;5049676;28;20043;-77
2022/03/03 04:40:01;;;;;;;1.85;1.40;;;;;;;11.14;100.00;101242.38;5050075;28;20045;-75
2022/03/03 04:42:29;;;;;;;1.85;1.08;;;;;;;11.10;100.00;101251.75;5029370;28;20041;-74
2022/03/03 04:44:57;;;;;;;1.25;0.85;;;;;;;11.06;100.00;101247.31;5044475;28;20103;-74
2022/03/03 04:47:26;;;;;;;1.48;0.85;;;;;;;10.95;100.00;101225.31;5048846;28;20045;-75
2022/03/03 04:49:56;;;;;;;1.60;1.10;;;;;;;10.98;100.00;101242.66;5049137;28;20089;-75
2022/03/03 04:52:25;;;;;;;1.30;0.80;;;;;;;10.98;100.00;101253.91;5048442;28;20110;-75
2022/03/03 04:54:53;;;;;;;4.20;1.02;;;;;;;10.99;100.00;101260.81;5053067;28;20052;-75
2022/03/03 04:57:22;;;;;;;1.25;0.93;;;;;;;11.03;100.00;101261.84;5049643;28;20077;-73
2022/03/03 04:59:50;;;;;;;2.50;0.90;;;;;;;11.01;100.00;101261.78;5050028;28;20107;-74
2022/03/03 05:02:19;;;;;;;1.65;1.10;;;;;;;10.98;100.00;101259.09;5049025;28;20041;-76
2022/03/03 05:04:47;;;;;;;1.77;0.80;;;;;;;10.94;100.00;101257.19;5049149;28;20081;-76
2022/03/03 05:07:19;;;;;;;1.65;0.93;;;;;;;10.87;100.00;101263.88;5049456;28;20103;-74
2022/03/03 05:09:47;;;;;;;2.30;1.23;;;;;;;10.82;100.00;101267.13;5035572;28;20099;-73
2022/03/03 05:12:16;;;;;;;1.60;1.10;;;;;;;10.80;100.00;101268.78;5042507;28;20286;-75
2022/03/03 05:14:44;;;;;;;1.95;0.95;;;;;;;10.80;100.00;101268.78;5034853;28;20060;-75
2022/03/03 05:17:13;;;;;;;3.25;1.17;;;;;;;10.77;100.00;101273.84;5049720;28;20057;-74
2022/03/03 05:19:41;;;;;;;3.53;1.55;;;;;;;10.80;100.00;101269.66;5049770;28;20045;-73
2022/03/03 05:22:10;;;;;;;2.53;1.60;;;;;;;10.84;100.00;101271.53;5049358;28;20045;-75
2022/03/03 05:24:41;;;;;;;2.42;1.20;;;;;;;10.84;100.00;101275.84;5049151;28;20056;-76
2022/03/03 05:27:10;;;;;;;3.65;1.38;;;;;;;10.86;100.00;101269.88;5049107;28;20049;-75
2022/03/03 05:29:38;;;;;;;3.30;1.50;;;;;;;10.91;100.00;101277.81;5049555;28;20140;-74
2022/03/03 05:32:07;;;;;;;3.80;1.60;;;;;;;10.91;100.00;101267.47;5049140;28;20052;-75
2022/03/03 05:34:35;;;;;;;2.17;0.95;;;;;;;10.88;100.00;101273.41;5048998;28;20080;-75
2022/03/03 05:37:06;;;;;;;2.40;1.30;;;;;;;10.84;100.00;101284.47;5049026;28;20396;-75
2022/03/03 05:39:36;;;;;;;1.90;1.20;;;;;;;10.84;100.00;101275.84;5049407;28;20053;-75
2022/03/03 05:42:07;;;;;;;1.88;1.00;;;;;;;10.89;100.00;101279.47;5033125;28;20045;-75
2022/03/03 05:44:36;;;;;;;5.72;1.00;;;;;;;10.92;100.00;101279.56;5041816;28;20494;-75
2022/03/03 05:47:05;;;;;;;3.28;1.27;;;;;;;10.96;100.00;101271.09;5048816;28;20495;-76
2022/03/03 05:49:34;;;;;;;2.50;0.80;;;;;;;10.99;100.00;101285.84;5049504;28;20045;-77
2022/03/03 05:52:03;;;;;;;1.90;0.80;;;;;;;10.99;100.00;101291.91;5051360;28;20110;-76
2022/03/03 05:54:31;;;;;;;3.88;1.05;;;;;;;10.98;100.00;101287.56;5050396;28;20049;-76
2022/03/03 05:57:02;;;;;;;0.88;0.63;;;;;;;10.99;100.00;101298.78;5052844;28;20045;-75
2022/03/03 05:59:34;;;;;;;1.95;1.02;;;;;;;11.01;100.00;101302.31;5052927;28;20051;-74
2022/03/03 06:02:04;;;;;;;3.58;0.70;;;;;;;11.01;100.00;101300.63;5052081;28;20088;-75
2022/03/03 06:04:35;;;;;;;3.03;0.70;;;;;;;10.98;100.00;101295.34;5052382;28;20110;-75
2022/03/03 06:07:08;;;;;;;1.92;0.80;;;;;;;10.92;100.00;101284.75;5052504;28;20057;-76
2022/03/03 06:09:37;;;;;;;0.70;0.60;;;;;;;10.86;100.00;101300.06;5052092;28;20045;-76
2022/03/03 06:12:08;;;;;;;5.15;0.90;;;;;;;10.83;100.00;101300.81;5051629;28;20102;-75
2022/03/03 06:14:42;;;;;;;0.95;0.50;;;;;;;10.86;100.00;101306.13;5041434;28;20131;-72
2022/03/03 06:17:11;;;;;;;0.98;0.60;;;;;;;10.88;100.00;101308.75;5052750;28;20119;-72
2022/03/03 06:19:42;;;;;;;3.88;0.85;;;;;;;10.89;100.00;101311.41;5052135;28;20049;-73
2022/03/03 06:22:11;;;;;;;2.33;0.70;;;;;;;10.92;100.00;101313.22;5052240;28;20049;-73
2022/03/03 06:24:40;;;;;;;1.85;0.88;;;;;;;10.91;100.00;101314.06;5051886;28;20055;-73
2022/03/03 06:27:09;;;;;;;1.92;0.85;;;;;;;10.90;100.00;101312.28;5038556;28;20052;-73
2022/03/03 06:29:38;;;;;;;3.30;0.80;;;;;;;10.88;100.00;101309.66;5052137;28;20490;-73
2022/03/03 06:32:09;;;;;;;3.00;1.50;;;;;;;10.84;100.00;101315.53;5052093;28;20045;-74
2022/03/03 06:34:38;;;;;;;3.28;1.20;;;;;;;10.82;100.00;101313.72;5052129;28;20045;-73
2022/03/03 06:37:07;;;;;;;2.03;1.25;;;;;;;10.80;100.00;101311.06;5051884;28;20128;-74
2022/03/03 06:39:35;;;;;;;2.92;1.00;;;;;;;10.79;100.00;101308.41;5051946;28;20167;-73
2022/03/03 06:42:04;;;;;;;3.25;0.95;;;;;;;10.76;100.00;101310.88;5051299;28;20099;-73
2022/03/03 06:44:33;;;;;;;3.22;2.42;;;;;;;10.72;100.00;101315.09;5051418;28;20502;-73
2022/03/03 06:47:02;;;;;;;2.33;0.82;;;;;;;10.68;100.00;101311.50;5051807;28;20045;-73
2022/03/03 06:49:32;;;;;;;3.03;1.00;;;;;;;10.69;100.00;101314.94;5055130;28;20480;-73
2022/03/03 06:52:06;;;;;;;3.90;0.90;;;;;;;10.69;100.00;101314.94;5051496;28;20076;-74
2022/03/03 06:54:35;;;;;;;3.00;1.15;;;;;;;10.67;100.00;101304.56;5051732;28;20396;-73
2022/03/03 06:57:04;;;;;;;2.15;1.00;;;;;;;10.68;100.00;101310.63;5051286;28;20053;-71
2022/03/03 06:59:33;;;;;;;1.70;0.75;;;;;;;10.70;100.00;101316.75;5051701;28;20099;-72
2022/03/03 07:02:02;;;;;;;6.90;1.10;;;;;;;10.66;100.00;101310.53;5051230;28;20055;-73
2022/03/03 07:04:34;;;;;;;3.72;1.10;;;;;;;10.66;100.00;101317.44;5051552;28;20037;-73
2022/03/03 07:07:03;;;;;;;3.13;0.80;;;;;;;10.64;100.00;101325.13;5051049;28;20041;-73
2022/03/03 07:09:32;;;;;;;2.88;1.10;;;;;;;10.59;100.00;101321.50;5037236;28;20388;-73
2022/03/03 07:12:01;;;;;;;4.90;1.25;;;;;;;10.53;100.00;101326.41;5051100;28;20077;-73
2022/03/03 07:14:30;;;;;;;2.65;0.90;;;;;;;10.50;100.00;101321.13;5051901;28;20049;-73
2022/03/03 07:17:02;;;;;;;2.90;1.02;;;;;;;10.50;100.00;101315.97;5051232;28;20483;-73
2022/03/03 07:19:45;;;;;;;1.02;0.68;;;;;;;10.52;100.00;101323.78;5051190;28;20084;-73
2022/03/03 07:22:20;;;;;;;1.08;0.63;;;;;;;10.49;100.00;101324.56;5051194;28;20526;-73
2022/03/03 07:24:53;;;;;;;2.25;0.93;;;;;;;10.43;100.00;101329.50;5051349;28;20766;-74
2022/03/03 07:27:25;;;;;;;1.40;0.57;;;;;;;10.42;100.00;101327.69;5051094;28;20045;-73
2022/03/03 07:29:58;;;;;;;1.92;1.02;;;;;;;10.43;100.00;101321.72;5050921;28;20102;-73
2022/03/03 07:32:35;;;;;;;4.13;0.85;;;;;;;10.45;100.00;101315.78;5050675;28;20087;-72
2022/03/03 07:35:09;;;;;;;1.67;0.90;;;;;;;10.49;100.00;101319.38;5051112;28;20164;-72
2022/03/03 07:37:41;;;;;;;5.03;0.90;;;;;;;10.50;100.00;101315.97;5050568;28;20099;-72
2022/03/03 07:40:10;;;;;;;5.13;1.02;;;;;;;10.51;100.00;101317.72;5051179;28;20053;-72
2022/03/03 07:42:41;;;;;;;2.40;0.82;;;;;;;10.53;100.00;101321.25;5029791;28;20091;-72
2022/03/03 07:45:10;;;;;;;2.35;1.20;;;;;;;10.55;100.00;101327.38;5049045;28;20052;-72
2022/03/03 07:47:40;;;;;;;2.33;1.20;;;;;;;10.55;100.00;101318.72;5052870;28;20053;-72
2022/03/03 07:50:11;;;;;;;2.35;1.08;;;;;;;10.57;100.00;101314.50;5050359;28;20762;-72
2022/03/03 07:52:39;;;;;;;3.30;1.42;;;;;;;10.56;100.00;101313.63;5049932;28;20056;-72
2022/03/03 07:55:08;;;;;;;4.70;1.27;;;;;;;10.54;100.00;101324.75;5050029;28;20053;-72
2022/03/03 07:57:41;;;;;;;1.90;0.90;;;;;;;10.44;100.00;101315.72;5049253;28;20060;-72
2022/03/03 08:00:13;;;;;;;2.55;1.20;;;;;;;10.31;100.00;101298.84;5049663;28;20098;-72
2022/03/03 08:02:43;;;;;;;4.50;1.20;;;;;;;10.33;100.00;101307.56;5036239;28;20052;-72
2022/03/03 08:05:14;;;;;;;2.75;1.52;;;;;;;10.28;100.00;101301.25;5049763;28;20049;-73
2022/03/03 08:07:44;;;;;;;3.03;1.23;;;;;;;10.24;100.00;101310.63;5049737;28;20053;-73
2022/03/03 08:10:13;;;;;;;3.58;1.45;;;;;;;10.19;100.00;101309.56;5050272;28;20063;-73
2022/03/03 08:12:44;;;;;;;3.05;1.20;;;;;;;10.18;100.00;101305.19;5047368;28;20053;-72
2022/03/03 08:15:13;;;;;;;2.90;0.98;;;;;;;10.16;100.00;101308.53;5021439;28;20041;-73
2022/03/03 08:17:44;;;;;;;2.67;1.27;;;;;;;10.16;100.00;101305.97;5028892;28;20517;-73
2022/03/03 08:20:15;;;;;;;2.10;1.42;;;;;;;10.15;100.00;101307.66;5030389;28;20053;-72
2022/03/03 08:22:43;;;;;;;2.97;0.80;;;;;;;10.17;100.00;101308.63;5029483;28;20050;-73
2022/03/03 08:25:13;;;;;;;5.40;1.60;;;;;;;10.20;100.00;101316.50;5029768;28;20053;-73
2022/03/03 08:27:42;;;;;;;7.45;1.48;;;;;;;10.24;100.00;101317.50;5029735;28;20053;-73
2022/03/03 08:30:13;;;;;;;2.22;1.52;;;;;;;10.29;100.00;101315.13;5016495;28;20525;-73
2022/03/03 08:32:45;;;;;;;5.25;1.10;;;;;;;10.31;100.00;101323.81;5029655;28;20531;-72
2022/03/03 08:35:20;;;;;;;4.60;1.00;;;;;;;10.34;100.00;101318.78;5029698;28;20057;-73
2022/03/03 08:37:59;;;;;;;8.43;1.30;;;;;;;10.35;100.00;101321.41;5029668;28;20534;-73
2022/03/03 08:40:31;;;;;;;5.93;1.58;;;;;;;10.37;100.00;101314.59;5027665;28;20471;-72
2022/03/03 08:43:02;;;;;;;4.03;1.17;;;;;;;10.39;100.00;101317.25;5010409;28;20042;-73
2022/03/03 08:45:33;;;;;;;3.28;0.70;;;;;;;10.38;100.00;101312.91;5019555;28;20064;-72
2022/03/03 08:48:03;;;;;;;1.80;0.90;;;;;;;10.38;100.00;101320.66;5030433;28;20053;-73
2022/03/03 08:50:35;;;;;;;3.53;1.40;;;;;;;10.39;100.00;101318.13;5029567;28;20496;-73
2022/03/03 08:53:05;;;;;;;1.42;0.75;;;;;;;10.41;100.00;101320.78;5029294;28;20092;-72
2022/03/03 08:55:34;;;;;;;3.42;1.17;;;;;;;10.39;100.00;101328.47;5030277;28;20107;-72
2022/03/03 08:58:03;;;;;;;4.03;0.85;;;;;;;10.36;100.00;101324.91;5030007;28;20107;-73
2022/03/03 09:00:32;;;;;;;3.85;0.93;;;;;;;10.30;100.00;101319.47;5030139;28;20096;-73
2022/03/03 09:03:01;;;;;;;5.35;0.98;;;;;;;10.26;100.00;101326.19;5029628;28;20053;-73
2022/03/03 09:05:30;;;;;;;3.42;0.90;;;;;;;10.19;100.00;101327.66;5029858;28;20430;-73
2022/03/03 09:08:00;;;;;;;3.42;0.93;;;;;;;10.14;100.00;101326.56;5016104;28;20045;-73
2022/03/03 09:10:29;;;;;;;9.48;1.05;;;;;;;10.16;100.00;101329.22;5029629;28;20099;-73
2022/03/03 09:12:57;;;;;;;4.90;0.90;;;;;;;10.19;100.00;101327.66;5026528;28;20084;-73
2022/03/03 09:15:26;;;;;;;3.65;1.10;;;;;;;10.22;100.00;101321.72;5040758;28;20049;-73
2022/03/03 09:17:54;;;;;;;2.25;0.90;;;;;;;10.24;100.00;101318.38;5049500;28;20091;-73
2022/03/03 09:20:23;;;;;;;6.15;0.95;;;;;;;10.24;100.00;101320.97;5049764;28;20049;-73
2022/03/03 09:22:51;;;;;;;4.70;1.13;;;;;;;10.23;100.00;101326.06;5049069;28;20519;-73
2022/03/03 09:25:23;;;;;;;3.10;0.80;;;;;;;10.23;100.00;101332.13;5035588;28;20045;-73
2022/03/03 09:27:51;;;;;;;2.22;1.10;;;;;;;10.20;100.00;101329.41;5049469;28;20056;-73
2022/03/03 09:30:21;;;;;;;2.83;0.80;;;;;;;10.20;100.00;101344.06;5051375;28;20518;-72
2022/03/03 09:32:49;;;;;;;1.88;0.98;;;;;;;10.19;100.00;101350.03;5052680;28;20053;-74
2022/03/03 09:35:18;;;;;;;2.17;0.95;;;;;;;10.18;100.00;101345.69;5053602;28;20084;-73
2022/03/03 09:37:47;;;;;;;3.28;1.35;;;;;;;10.11;100.00;101357.50;5052278;28;20049;-74
2022/03/03 09:40:15;;;;;;;2.15;0.70;;;;;;;10.08;100.00;101352.22;5052541;28;20088;-73
2022/03/03 09:42:57;;;;;;;1.27;0.70;;;;;;;10.06;100.00;101349.56;5035475;28;20406;-73
2022/03/03 09:45:27;;;;;;;5.05;0.70;;;;;;;10.00;100.00;101348.41;5039316;28;20055;-74
2022/03/03 09:47:57;;;;;;;5.00;0.98;;;;;;;9.97;100.00;101348.28;5052652;28;20120;-73
2022/03/03 09:50:27;;;;;;;1.98;0.85;;;;;;;9.96;100.00;101351.69;5053014;28;20052;-73
2022/03/03 09:52:56;;;;;;;0.82;0.50;;;;;;;9.94;100.00;101359.41;5052470;28;20044;-73
2022/03/03 09:55:31;;;;;;;0.75;0.45;;;;;;;9.92;100.00;101367.88;5052679;28;20049;-73
2022/03/03 09:58:02;;;;;;;0.35;0.20;;;;;;;9.89;100.00;101372.94;5052440;28;20049;-73
2022/03/03 10:00:33;;;;;;;0.95;0.30;;;;;;;9.82;100.00;101364.03;5052993;28;20469;-73
2022/03/03 10:03:08;;;;;;;0.20;0.20;;;;;;;9.78;100.00;101365.63;5052574;28;20406;-74
2022/03/03 10:05:39;;;;;;;0.20;0.20;;;;;;;9.70;100.00;101359.22;5052250;28;20333;-75
2022/03/03 10:08:09;;;;;;;0.20;0.20;;;;;;;9.65;100.00;101355.56;5052622;28;20111;-74
2022/03/03 10:10:39;;;;;;;0.77;0.30;;;;;;;9.57;100.00;101356.94;5052256;28;20044;-73
2022/03/03 10:13:10;;;;;;;0.45;0.20;;;;;;;9.50;100.00;101344.56;5052486;28;20103;-73
2022/03/03 10:15:39;;;;;;;0.50;0.30;;;;;;;9.53;100.00;101355.03;5052630;28;20045;-73
2022/03/03 10:18:12;;;;;;;0.00;0.00;;;;;;;9.53;100.00;101352.44;5049574;28;20045;-73
2022/03/03 10:20:50;;;;;;;0.20;0.20;;;;;;;9.51;100.00;101352.41;5032549;28;20128;-73
2022/03/03 10:23:19;;;;;;;1.45;0.20;;;;;;;9.45;100.00;101352.13;5031589;28;20041;-72
2022/03/03 10:25:48;;;;;;;0.00;0.00;;;;;;;9.42;100.00;101347.72;5035598;28;20068;-73
2022/03/03 10:28:20;;;;;;;0.08;0.05;;;;;;;9.38;100.00;101345.81;5031990;28;20119;-72
2022/03/03 10:31:04;;;;;;;0.15;0.13;;;;;;;9.31;100.00;101354.09;5032928;28;20068;-74
2022/03/03 10:33:35;;;;;;;1.95;0.38;;;;;;;9.30;100.00;101359.19;5051419;28;20048;-73
2022/03/03 10:36:12;;;;;;;0.10;0.00;;;;;;;9.30;100.00;101342.03;5044321;28;20069;-73
2022/03/03 10:38:52;;;;;;;0.90;0.32;;;;;;;9.30;100.00;101349.78;5051552;28;20115;-72
2022/03/03 10:41:35;;;;;;;0.75;0.30;;;;;;;9.27;100.00;101352.19;5051009;28;20107;-72
2022/03/03 10:44:08;;;;;;;0.30;0.30;;;;;;;9.25;100.00;101340.91;5052689;28;20041;-73
2022/03/03 10:46:37;;;;;;;0.20;0.10;;;;;;;9.24;100.00;101349.47;5052546;28;20049;-72
2022/03/03 10:49:23;;;;;;;0.13;0.10;;;;;;;9.19;100.00;101349.28;5051583;28;20049;-72
2022/03/03 10:51:52;;;;;;;0.70;0.10;;;;;;;9.19;100.00;101358.72;5051890;28;20052;-72
2022/03/03 10:54:21;;;;;;;1.10;0.25;;;;;;;9.21;100.00;101364.84;5037318;28;20055;-71
2022/03/03 10:56:51;;;;;;;0.17;0.10;;;;;;;9.17;100.00;101368.09;5037434;28;20053;-73
2022/03/03 10:59:26;;;;;;;0.47;0.30;;;;;;;9.10;100.00;101361.78;5052059;28;20041;-73
2022/03/03 11:01:55;;;;;;;0.55;0.20;;;;;;;9.07;100.00;101353.00;5051836;28;20076;-72
2022/03/03 11:04:24;;;;;;;0.68;0.40;;;;;;;9.04;100.00;101345.13;5037602;28;20045;-73
2022/03/03 11:06:54;;;;;;;0.30;0.20;;;;;;;9.04;100.00;101348.59;5051711;28;20045;-72
2022/03/03 11:09:22;;;;;;;0.00;0.00;;;;;;;8.98;100.00;101354.38;5051534;28;20068;-73
2022/03/03 11:11:51;;;;;;;0.00;0.00;;;;;;;8.97;100.00;101351.72;5051099;28;20102;-73
2022/03/03 11:14:20;;;;;;;0.00;0.00;;;;;;;8.93;100.00;101360.13;5052147;28;20057;-73
2022/03/03 11:16:50;;;;;;;0.00;0.00;;;;;;;8.89;100.00;101369.44;5051502;28;20414;-74
2022/03/03 11:19:19;;;;;;;0.00;0.00;;;;;;;8.88;100.00;101362.50;5051605;28;20110;-74
2022/03/03 11:21:48;;;;;;;0.03;0.00;;;;;;;8.88;100.00;101365.06;5051053;28;20406;-73
2022/03/03 11:24:19;;;;;;;0.00;0.00;;;;;;;8.84;100.00;101360.56;5051096;28;20049;-74
2022/03/03 11:26:48;;;;;;;0.73;0.03;;;;;;;8.76;100.00;101362.81;5037324;28;20558;-74
2022/03/03 11:29:20;;;;;;;0.00;0.00;;;;;;;8.75;100.00;101362.72;5050762;28;20546;-74
2022/03/03 11:32:04;;;;;;;0.00;0.00;;;;;;;8.72;100.00;101354.84;5050867;28;20053;-74